sensor_id;sensor_type;location;lat;lon;timestamp;P1;durP1;ratioP1;P2;durP2;ratioP2
313;SDS011;143;51.634;7.112;2023-08-30T00:00:19;12.20;;;8.17;;
313;SDS011;143;51.634;7.112;2023-08-30T00:02:47;13.33;;;9.27;;
313;SDS011;143;51.634;7.112;2023-08-30T00:05:13;10.47;;;8.30;;
313;SDS011;143;51.634;7.112;2023-08-30T00:07:39;13.17;;;8.70;;
313;SDS011;143;51.634;7.112;2023-08-30T00:10:08;14.93;;;9.47;;
313;SDS011;143;51.634;7.112;2023-08-30T00:12:35;14.03;;;9.30;;
313;SDS011;143;51.634;7.112;2023-08-30T00:15:01;13.57;;;10.57;;
313;SDS011;143;51.634;7.112;2023-08-30T00:17:27;19.43;;;10.00;;
313;SDS011;143;51.634;7.112;2023-08-30T00:19:52;16.60;;;9.10;;
313;SDS011;143;51.634;7.112;2023-08-30T00:22:20;15.03;;;10.97;;
313;SDS011;143;51.634;7.112;2023-08-30T00:24:47;15.93;;;11.97;;
313;SDS011;143;51.634;7.112;2023-08-30T00:27:12;16.33;;;10.47;;
313;SDS011;143;51.634;7.112;2023-08-30T00:29:38;16.13;;;10.67;;
313;SDS011;143;51.634;7.112;2023-08-30T00:32:04;13.60;;;10.07;;
313;SDS011;143;51.634;7.112;2023-08-30T00:34:30;13.77;;;9.57;;
313;SDS011;143;51.634;7.112;2023-08-30T00:36:55;15.60;;;11.00;;
313;SDS011;143;51.634;7.112;2023-08-30T00:39:21;14.13;;;10.43;;
313;SDS011;143;51.634;7.112;2023-08-30T00:41:47;13.77;;;10.60;;
313;SDS011;143;51.634;7.112;2023-08-30T00:44:13;15.60;;;10.20;;
313;SDS011;143;51.634;7.112;2023-08-30T00:46:39;16.03;;;12.00;;
313;SDS011;143;51.634;7.112;2023-08-30T00:49:04;16.27;;;10.53;;
313;SDS011;143;51.634;7.112;2023-08-30T00:51:31;24.90;;;12.10;;
313;SDS011;143;51.634;7.112;2023-08-30T00:54:00;15.67;;;11.37;;
313;SDS011;143;51.634;7.112;2023-08-30T00:56:27;15.40;;;10.73;;
313;SDS011;143;51.634;7.112;2023-08-30T00:58:52;19.97;;;12.17;;
313;SDS011;143;51.634;7.112;2023-08-30T01:01:18;19.30;;;12.23;;
313;SDS011;143;51.634;7.112;2023-08-30T01:03:45;17.03;;;13.30;;
313;SDS011;143;51.634;7.112;2023-08-30T01:06:11;16.37;;;12.43;;
313;SDS011;143;51.634;7.112;2023-08-30T01:08:38;20.57;;;12.13;;
313;SDS011;143;51.634;7.112;2023-08-30T01:11:09;20.27;;;12.47;;
313;SDS011;143;51.634;7.112;2023-08-30T01:13:50;14.77;;;11.10;;
313;SDS011;143;51.634;7.112;2023-08-30T01:16:23;16.73;;;11.83;;
313;SDS011;143;51.634;7.112;2023-08-30T01:18:50;12.67;;;10.23;;
313;SDS011;143;51.634;7.112;2023-08-30T01:21:30;17.30;;;9.97;;
313;SDS011;143;51.634;7.112;2023-08-30T01:24:07;14.83;;;12.17;;
313;SDS011;143;51.634;7.112;2023-08-30T01:29:34;15.77;;;12.20;;
313;SDS011;143;51.634;7.112;2023-08-30T01:32:08;21.43;;;11.30;;
313;SDS011;143;51.634;7.112;2023-08-30T01:34:35;28.83;;;13.93;;
313;SDS011;143;51.634;7.112;2023-08-30T01:37:04;17.30;;;11.20;;
313;SDS011;143;51.634;7.112;2023-08-30T01:39:35;24.37;;;11.77;;
313;SDS011;143;51.634;7.112;2023-08-30T01:42:03;15.40;;;9.83;;
313;SDS011;143;51.634;7.112;2023-08-30T01:44:29;17.40;;;11.20;;
313;SDS011;143;51.634;7.112;2023-08-30T01:46:56;20.97;;;12.40;;
313;SDS011;143;51.634;7.112;2023-08-30T01:49:23;19.47;;;12.40;;
313;SDS011;143;51.634;7.112;2023-08-30T01:51:50;17.93;;;11.30;;
313;SDS011;143;51.634;7.112;2023-08-30T01:54:17;18.77;;;12.40;;
313;SDS011;143;51.634;7.112;2023-08-30T01:56:44;20.73;;;14.10;;
313;SDS011;143;51.634;7.112;2023-08-30T01:59:10;23.40;;;14.77;;
313;SDS011;143;51.634;7.112;2023-08-30T02:01:36;21.07;;;12.80;;
313;SDS011;143;51.634;7.112;2023-08-30T02:04:02;16.90;;;11.57;;
313;SDS011;143;51.634;7.112;2023-08-30T02:06:30;22.73;;;12.63;;
313;SDS011;143;51.634;7.112;2023-08-30T02:09:03;17.73;;;11.63;;
313;SDS011;143;51.634;7.112;2023-08-30T02:11:34;14.33;;;11.00;;
313;SDS011;143;51.634;7.112;2023-08-30T02:14:02;30.93;;;13.77;;
313;SDS011;143;51.634;7.112;2023-08-30T02:16:31;23.27;;;14.03;;
313;SDS011;143;51.634;7.112;2023-08-30T02:18:58;25.07;;;16.17;;
313;SDS011;143;51.634;7.112;2023-08-30T02:21:24;20.77;;;14.47;;
313;SDS011;143;51.634;7.112;2023-08-30T02:23:50;26.53;;;15.00;;
313;SDS011;143;51.634;7.112;2023-08-30T02:26:17;22.20;;;13.73;;
313;SDS011;143;51.634;7.112;2023-08-30T02:28:44;26.50;;;15.77;;
313;SDS011;143;51.634;7.112;2023-08-30T02:31:10;27.43;;;16.10;;
313;SDS011;143;51.634;7.112;2023-08-30T02:33:36;25.87;;;16.00;;
313;SDS011;143;51.634;7.112;2023-08-30T02:36:02;31.10;;;17.27;;
313;SDS011;143;51.634;7.112;2023-08-30T02:38:28;26.17;;;16.10;;
313;SDS011;143;51.634;7.112;2023-08-30T02:40:54;28.10;;;16.07;;
313;SDS011;143;51.634;7.112;2023-08-30T02:43:20;21.00;;;14.83;;
313;SDS011;143;51.634;7.112;2023-08-30T02:45:45;27.33;;;15.53;;
313;SDS011;143;51.634;7.112;2023-08-30T02:48:11;28.60;;;16.30;;
313;SDS011;143;51.634;7.112;2023-08-30T02:50:37;19.00;;;12.93;;
313;SDS011;143;51.634;7.112;2023-08-30T02:53:02;16.93;;;12.53;;
313;SDS011;143;51.634;7.112;2023-08-30T02:55:30;19.73;;;11.67;;
313;SDS011;143;51.634;7.112;2023-08-30T02:57:56;16.80;;;11.03;;
313;SDS011;143;51.634;7.112;2023-08-30T03:00:21;17.83;;;11.60;;
313;SDS011;143;51.634;7.112;2023-08-30T03:02:47;19.20;;;11.90;;
313;SDS011;143;51.634;7.112;2023-08-30T03:05:13;19.90;;;13.00;;
313;SDS011;143;51.634;7.112;2023-08-30T03:07:39;21.03;;;13.67;;
313;SDS011;143;51.634;7.112;2023-08-30T03:10:05;23.67;;;16.00;;
313;SDS011;143;51.634;7.112;2023-08-30T03:12:31;31.77;;;17.57;;
313;SDS011;143;51.634;7.112;2023-08-30T03:14:57;33.23;;;17.97;;
313;SDS011;143;51.634;7.112;2023-08-30T03:17:23;30.27;;;18.27;;
313;SDS011;143;51.634;7.112;2023-08-30T03:19:51;26.67;;;17.10;;
313;SDS011;143;51.634;7.112;2023-08-30T03:22:18;28.30;;;16.00;;
313;SDS011;143;51.634;7.112;2023-08-30T03:24:44;30.63;;;17.07;;
313;SDS011;143;51.634;7.112;2023-08-30T03:27:09;28.13;;;16.87;;
313;SDS011;143;51.634;7.112;2023-08-30T03:29:35;32.97;;;17.97;;
313;SDS011;143;51.634;7.112;2023-08-30T03:32:01;31.53;;;17.70;;
313;SDS011;143;51.634;7.112;2023-08-30T03:34:26;27.20;;;18.63;;
313;SDS011;143;51.634;7.112;2023-08-30T03:36:52;30.60;;;18.20;;
313;SDS011;143;51.634;7.112;2023-08-30T03:39:22;24.10;;;16.37;;
313;SDS011;143;51.634;7.112;2023-08-30T03:41:49;33.80;;;19.10;;
313;SDS011;143;51.634;7.112;2023-08-30T03:44:15;26.37;;;17.30;;
313;SDS011;143;51.634;7.112;2023-08-30T03:46:41;24.93;;;15.50;;
313;SDS011;143;51.634;7.112;2023-08-30T03:49:06;26.47;;;15.70;;
313;SDS011;143;51.634;7.112;2023-08-30T03:51:32;27.17;;;15.93;;
313;SDS011;143;51.634;7.112;2023-08-30T03:53:58;25.70;;;16.60;;
313;SDS011;143;51.634;7.112;2023-08-30T03:56:23;22.60;;;14.90;;
313;SDS011;143;51.634;7.112;2023-08-30T03:58:49;32.13;;;17.07;;
313;SDS011;143;51.634;7.112;2023-08-30T04:01:15;32.27;;;17.90;;
313;SDS011;143;51.634;7.112;2023-08-30T04:03:40;28.80;;;17.43;;
313;SDS011;143;51.634;7.112;2023-08-30T04:06:06;27.80;;;17.27;;
313;SDS011;143;51.634;7.112;2023-08-30T04:08:32;26.03;;;16.67;;
313;SDS011;143;51.634;7.112;2023-08-30T04:10:57;38.40;;;20.30;;
313;SDS011;143;51.634;7.112;2023-08-30T04:13:23;24.50;;;17.20;;
313;SDS011;143;51.634;7.112;2023-08-30T04:15:49;31.87;;;20.40;;
313;SDS011;143;51.634;7.112;2023-08-30T04:18:16;33.70;;;19.43;;
313;SDS011;143;51.634;7.112;2023-08-30T04:20:45;30.27;;;19.90;;
313;SDS011;143;51.634;7.112;2023-08-30T04:23:11;29.50;;;18.87;;
313;SDS011;143;51.634;7.112;2023-08-30T04:25:37;28.43;;;18.40;;
313;SDS011;143;51.634;7.112;2023-08-30T04:28:03;27.03;;;17.10;;
313;SDS011;143;51.634;7.112;2023-08-30T04:30:29;36.20;;;19.37;;
313;SDS011;143;51.634;7.112;2023-08-30T04:32:54;34.40;;;18.57;;
313;SDS011;143;51.634;7.112;2023-08-30T04:35:20;30.40;;;16.93;;
313;SDS011;143;51.634;7.112;2023-08-30T04:37:45;30.87;;;17.53;;
313;SDS011;143;51.634;7.112;2023-08-30T04:40:11;32.47;;;18.63;;
313;SDS011;143;51.634;7.112;2023-08-30T04:42:37;30.00;;;18.70;;
313;SDS011;143;51.634;7.112;2023-08-30T04:45:05;27.27;;;18.70;;
313;SDS011;143;51.634;7.112;2023-08-30T04:47:32;33.43;;;19.13;;
313;SDS011;143;51.634;7.112;2023-08-30T04:49:58;31.83;;;19.70;;
313;SDS011;143;51.634;7.112;2023-08-30T04:52:24;26.20;;;17.97;;
313;SDS011;143;51.634;7.112;2023-08-30T04:54:50;27.90;;;18.07;;
313;SDS011;143;51.634;7.112;2023-08-30T04:57:16;33.40;;;19.07;;
313;SDS011;143;51.634;7.112;2023-08-30T04:59:45;32.20;;;19.90;;
313;SDS011;143;51.634;7.112;2023-08-30T05:02:11;27.87;;;18.50;;
313;SDS011;143;51.634;7.112;2023-08-30T05:04:37;28.17;;;18.03;;
313;SDS011;143;51.634;7.112;2023-08-30T05:07:03;35.00;;;20.20;;
313;SDS011;143;51.634;7.112;2023-08-30T05:09:32;33.80;;;21.87;;
313;SDS011;143;51.634;7.112;2023-08-30T05:11:59;30.17;;;18.50;;
313;SDS011;143;51.634;7.112;2023-08-30T05:14:25;34.87;;;22.30;;
313;SDS011;143;51.634;7.112;2023-08-30T05:16:51;34.27;;;20.93;;
313;SDS011;143;51.634;7.112;2023-08-30T05:19:17;30.73;;;19.10;;
313;SDS011;143;51.634;7.112;2023-08-30T05:21:43;31.23;;;20.33;;
313;SDS011;143;51.634;7.112;2023-08-30T05:24:09;33.00;;;19.90;;
313;SDS011;143;51.634;7.112;2023-08-30T05:26:35;31.73;;;20.33;;
313;SDS011;143;51.634;7.112;2023-08-30T05:29:01;30.50;;;18.30;;
313;SDS011;143;51.634;7.112;2023-08-30T05:31:27;36.83;;;18.83;;
313;SDS011;143;51.634;7.112;2023-08-30T05:33:53;34.63;;;20.67;;
313;SDS011;143;51.634;7.112;2023-08-30T05:36:18;29.53;;;18.00;;
313;SDS011;143;51.634;7.112;2023-08-30T05:38:44;30.70;;;21.27;;
313;SDS011;143;51.634;7.112;2023-08-30T05:41:10;32.63;;;21.27;;
313;SDS011;143;51.634;7.112;2023-08-30T05:43:35;35.60;;;23.13;;
313;SDS011;143;51.634;7.112;2023-08-30T05:46:01;43.97;;;23.90;;
313;SDS011;143;51.634;7.112;2023-08-30T05:48:32;34.17;;;22.07;;
313;SDS011;143;51.634;7.112;2023-08-30T05:50:58;42.07;;;24.37;;
313;SDS011;143;51.634;7.112;2023-08-30T05:53:24;39.23;;;21.77;;
313;SDS011;143;51.634;7.112;2023-08-30T05:55:49;38.17;;;23.10;;
313;SDS011;143;51.634;7.112;2023-08-30T05:58:15;48.50;;;23.90;;
313;SDS011;143;51.634;7.112;2023-08-30T06:00:42;40.00;;;22.00;;
313;SDS011;143;51.634;7.112;2023-08-30T06:03:08;42.63;;;24.00;;
313;SDS011;143;51.634;7.112;2023-08-30T06:05:34;38.73;;;24.07;;
313;SDS011;143;51.634;7.112;2023-08-30T06:07:59;37.43;;;23.67;;
313;SDS011;143;51.634;7.112;2023-08-30T06:10:25;40.57;;;23.90;;
313;SDS011;143;51.634;7.112;2023-08-30T06:12:51;41.57;;;26.30;;
313;SDS011;143;51.634;7.112;2023-08-30T06:15:17;40.87;;;25.17;;
313;SDS011;143;51.634;7.112;2023-08-30T06:17:43;46.20;;;27.63;;
313;SDS011;143;51.634;7.112;2023-08-30T06:20:11;44.87;;;27.50;;
313;SDS011;143;51.634;7.112;2023-08-30T06:22:37;46.10;;;28.40;;
313;SDS011;143;51.634;7.112;2023-08-30T06:25:03;47.47;;;27.47;;
313;SDS011;143;51.634;7.112;2023-08-30T06:27:29;46.40;;;28.80;;
313;SDS011;143;51.634;7.112;2023-08-30T06:29:55;50.03;;;30.93;;
313;SDS011;143;51.634;7.112;2023-08-30T06:32:21;50.77;;;29.60;;
313;SDS011;143;51.634;7.112;2023-08-30T06:34:46;50.60;;;30.17;;
313;SDS011;143;51.634;7.112;2023-08-30T06:37:12;49.20;;;27.53;;
313;SDS011;143;51.634;7.112;2023-08-30T06:39:38;47.33;;;27.77;;
313;SDS011;143;51.634;7.112;2023-08-30T06:42:03;53.10;;;30.73;;
313;SDS011;143;51.634;7.112;2023-08-30T06:44:29;49.37;;;30.97;;
313;SDS011;143;51.634;7.112;2023-08-30T06:46:55;50.43;;;29.17;;
313;SDS011;143;51.634;7.112;2023-08-30T06:49:22;57.40;;;31.27;;
313;SDS011;143;51.634;7.112;2023-08-30T06:51:48;47.63;;;27.77;;
313;SDS011;143;51.634;7.112;2023-08-30T06:54:13;50.23;;;30.60;;
313;SDS011;143;51.634;7.112;2023-08-30T06:56:39;44.50;;;28.20;;
313;SDS011;143;51.634;7.112;2023-08-30T06:59:05;56.13;;;29.43;;
313;SDS011;143;51.634;7.112;2023-08-30T07:01:30;50.67;;;30.90;;
313;SDS011;143;51.634;7.112;2023-08-30T07:03:56;52.50;;;29.90;;
313;SDS011;143;51.634;7.112;2023-08-30T07:06:22;49.10;;;28.90;;
313;SDS011;143;51.634;7.112;2023-08-30T07:08:48;43.13;;;25.57;;
313;SDS011;143;51.634;7.112;2023-08-30T07:11:14;44.50;;;25.23;;
313;SDS011;143;51.634;7.112;2023-08-30T07:13:39;40.97;;;25.60;;
313;SDS011;143;51.634;7.112;2023-08-30T07:16:05;45.27;;;25.40;;
313;SDS011;143;51.634;7.112;2023-08-30T07:18:30;48.27;;;25.33;;
313;SDS011;143;51.634;7.112;2023-08-30T07:20:56;36.80;;;23.10;;
313;SDS011;143;51.634;7.112;2023-08-30T07:23:22;41.20;;;23.50;;
313;SDS011;143;51.634;7.112;2023-08-30T07:25:48;43.13;;;23.43;;
313;SDS011;143;51.634;7.112;2023-08-30T07:28:13;42.10;;;25.20;;
313;SDS011;143;51.634;7.112;2023-08-30T07:30:39;43.60;;;23.53;;
313;SDS011;143;51.634;7.112;2023-08-30T07:33:04;37.47;;;21.97;;
313;SDS011;143;51.634;7.112;2023-08-30T07:35:31;37.63;;;22.80;;
313;SDS011;143;51.634;7.112;2023-08-30T07:37:57;44.97;;;23.77;;
313;SDS011;143;51.634;7.112;2023-08-30T07:40:23;39.17;;;23.50;;
313;SDS011;143;51.634;7.112;2023-08-30T07:42:53;33.50;;;21.40;;
313;SDS011;143;51.634;7.112;2023-08-30T07:45:19;35.60;;;21.53;;
313;SDS011;143;51.634;7.112;2023-08-30T07:47:44;37.20;;;24.07;;
313;SDS011;143;51.634;7.112;2023-08-30T07:50:10;38.17;;;22.87;;
313;SDS011;143;51.634;7.112;2023-08-30T07:52:36;36.57;;;19.20;;
313;SDS011;143;51.634;7.112;2023-08-30T07:55:01;33.00;;;20.73;;
313;SDS011;143;51.634;7.112;2023-08-30T07:57:27;30.47;;;18.63;;
313;SDS011;143;51.634;7.112;2023-08-30T07:59:53;32.53;;;19.17;;
313;SDS011;143;51.634;7.112;2023-08-30T08:02:19;29.93;;;18.80;;
313;SDS011;143;51.634;7.112;2023-08-30T08:04:44;33.43;;;17.73;;
313;SDS011;143;51.634;7.112;2023-08-30T08:07:10;25.23;;;16.30;;
313;SDS011;143;51.634;7.112;2023-08-30T08:09:36;24.17;;;16.63;;
313;SDS011;143;51.634;7.112;2023-08-30T08:12:02;26.30;;;15.77;;
313;SDS011;143;51.634;7.112;2023-08-30T08:14:28;29.40;;;15.60;;
313;SDS011;143;51.634;7.112;2023-08-30T08:16:54;25.10;;;14.47;;
313;SDS011;143;51.634;7.112;2023-08-30T08:19:20;32.17;;;14.50;;
313;SDS011;143;51.634;7.112;2023-08-30T08:21:46;23.17;;;14.03;;
313;SDS011;143;51.634;7.112;2023-08-30T08:24:12;19.47;;;13.07;;
313;SDS011;143;51.634;7.112;2023-08-30T08:26:38;21.10;;;11.67;;
313;SDS011;143;51.634;7.112;2023-08-30T08:29:04;19.90;;;11.00;;
313;SDS011;143;51.634;7.112;2023-08-30T08:31:29;16.30;;;11.50;;
313;SDS011;143;51.634;7.112;2023-08-30T08:34:08;16.17;;;10.27;;
313;SDS011;143;51.634;7.112;2023-08-30T08:36:35;18.50;;;9.30;;
313;SDS011;143;51.634;7.112;2023-08-30T08:39:02;16.73;;;9.63;;
313;SDS011;143;51.634;7.112;2023-08-30T08:41:31;13.93;;;8.90;;
313;SDS011;143;51.634;7.112;2023-08-30T08:44:10;15.93;;;9.40;;
313;SDS011;143;51.634;7.112;2023-08-30T08:46:36;15.00;;;7.30;;
313;SDS011;143;51.634;7.112;2023-08-30T08:49:13;13.77;;;7.60;;
313;SDS011;143;51.634;7.112;2023-08-30T08:51:41;14.57;;;7.73;;
313;SDS011;143;51.634;7.112;2023-08-30T08:54:08;13.10;;;7.67;;
313;SDS011;143;51.634;7.112;2023-08-30T08:56:34;11.63;;;7.47;;
313;SDS011;143;51.634;7.112;2023-08-30T08:59:01;16.70;;;7.80;;
313;SDS011;143;51.634;7.112;2023-08-30T09:01:27;16.50;;;7.50;;
313;SDS011;143;51.634;7.112;2023-08-30T09:03:53;11.63;;;6.60;;
313;SDS011;143;51.634;7.112;2023-08-30T09:06:19;8.47;;;6.40;;
313;SDS011;143;51.634;7.112;2023-08-30T09:08:47;12.00;;;6.70;;
313;SDS011;143;51.634;7.112;2023-08-30T09:11:12;11.57;;;7.40;;
313;SDS011;143;51.634;7.112;2023-08-30T09:13:38;12.67;;;7.70;;
313;SDS011;143;51.634;7.112;2023-08-30T09:16:16;17.60;;;7.87;;
313;SDS011;143;51.634;7.112;2023-08-30T09:18:42;12.60;;;7.80;;
313;SDS011;143;51.634;7.112;2023-08-30T09:21:08;11.70;;;7.00;;
313;SDS011;143;51.634;7.112;2023-08-30T09:23:35;12.60;;;6.73;;
313;SDS011;143;51.634;7.112;2023-08-30T09:26:01;15.47;;;7.63;;
313;SDS011;143;51.634;7.112;2023-08-30T09:28:28;13.00;;;7.00;;
313;SDS011;143;51.634;7.112;2023-08-30T09:30:54;14.83;;;6.40;;
313;SDS011;143;51.634;7.112;2023-08-30T09:33:22;9.97;;;6.27;;
313;SDS011;143;51.634;7.112;2023-08-30T09:35:54;11.70;;;7.03;;
313;SDS011;143;51.634;7.112;2023-08-30T09:38:20;9.97;;;6.33;;
313;SDS011;143;51.634;7.112;2023-08-30T09:40:45;12.93;;;6.67;;
313;SDS011;143;51.634;7.112;2023-08-30T09:43:12;9.60;;;6.20;;
313;SDS011;143;51.634;7.112;2023-08-30T09:45:38;9.00;;;5.60;;
313;SDS011;143;51.634;7.112;2023-08-30T09:48:07;13.43;;;7.40;;
313;SDS011;143;51.634;7.112;2023-08-30T09:50:34;13.37;;;9.03;;
313;SDS011;143;51.634;7.112;2023-08-30T09:53:06;9.50;;;6.73;;
313;SDS011;143;51.634;7.112;2023-08-30T09:55:34;10.70;;;7.70;;
313;SDS011;143;51.634;7.112;2023-08-30T09:58:03;14.03;;;7.40;;
313;SDS011;143;51.634;7.112;2023-08-30T10:00:30;12.30;;;8.03;;
313;SDS011;143;51.634;7.112;2023-08-30T10:02:58;15.43;;;8.10;;
313;SDS011;143;51.634;7.112;2023-08-30T10:05:25;14.53;;;7.30;;
313;SDS011;143;51.634;7.112;2023-08-30T10:07:52;10.80;;;6.63;;
313;SDS011;143;51.634;7.112;2023-08-30T10:10:19;12.20;;;7.30;;
313;SDS011;143;51.634;7.112;2023-08-30T10:12:46;14.47;;;7.20;;
313;SDS011;143;51.634;7.112;2023-08-30T10:15:11;9.60;;;6.63;;
313;SDS011;143;51.634;7.112;2023-08-30T10:17:38;15.20;;;7.53;;
313;SDS011;143;51.634;7.112;2023-08-30T10:20:09;10.93;;;6.90;;
313;SDS011;143;51.634;7.112;2023-08-30T10:22:37;11.93;;;7.20;;
313;SDS011;143;51.634;7.112;2023-08-30T10:25:15;10.47;;;7.57;;
313;SDS011;143;51.634;7.112;2023-08-30T10:27:46;18.03;;;6.83;;
313;SDS011;143;51.634;7.112;2023-08-30T10:30:15;14.57;;;8.70;;
313;SDS011;143;51.634;7.112;2023-08-30T10:32:43;16.43;;;8.77;;
313;SDS011;143;51.634;7.112;2023-08-30T10:35:14;12.53;;;8.50;;
313;SDS011;143;51.634;7.112;2023-08-30T10:37:41;15.57;;;9.13;;
313;SDS011;143;51.634;7.112;2023-08-30T10:40:07;11.87;;;8.33;;
313;SDS011;143;51.634;7.112;2023-08-30T10:42:33;13.47;;;8.60;;
313;SDS011;143;51.634;7.112;2023-08-30T10:45:00;11.60;;;8.33;;
313;SDS011;143;51.634;7.112;2023-08-30T10:47:26;13.20;;;9.17;;
313;SDS011;143;51.634;7.112;2023-08-30T10:49:57;19.27;;;9.33;;
313;SDS011;143;51.634;7.112;2023-08-30T10:52:29;14.23;;;8.47;;
313;SDS011;143;51.634;7.112;2023-08-30T10:55:04;17.13;;;10.27;;
313;SDS011;143;51.634;7.112;2023-08-30T10:57:37;14.20;;;10.57;;
313;SDS011;143;51.634;7.112;2023-08-30T11:02:36;11.97;;;9.10;;
313;SDS011;143;51.634;7.112;2023-08-30T11:05:03;18.80;;;11.40;;
313;SDS011;143;51.634;7.112;2023-08-30T11:07:34;19.27;;;11.10;;
313;SDS011;143;51.634;7.112;2023-08-30T11:10:00;18.07;;;12.30;;
313;SDS011;143;51.634;7.112;2023-08-30T11:12:29;18.33;;;12.27;;
313;SDS011;143;51.634;7.112;2023-08-30T11:14:55;20.97;;;14.00;;
313;SDS011;143;51.634;7.112;2023-08-30T11:17:21;21.20;;;13.00;;
313;SDS011;143;51.634;7.112;2023-08-30T11:19:51;17.73;;;12.53;;
313;SDS011;143;51.634;7.112;2023-08-30T11:22:22;21.20;;;12.90;;
313;SDS011;143;51.634;7.112;2023-08-30T11:24:49;21.77;;;12.63;;
313;SDS011;143;51.634;7.112;2023-08-30T11:27:18;22.20;;;14.20;;
313;SDS011;143;51.634;7.112;2023-08-30T11:29:44;24.50;;;14.93;;
313;SDS011;143;51.634;7.112;2023-08-30T11:32:10;19.33;;;14.70;;
313;SDS011;143;51.634;7.112;2023-08-30T11:34:36;21.30;;;14.10;;
313;SDS011;143;51.634;7.112;2023-08-30T11:37:01;19.57;;;13.70;;
313;SDS011;143;51.634;7.112;2023-08-30T11:39:30;18.80;;;13.63;;
313;SDS011;143;51.634;7.112;2023-08-30T11:41:56;21.00;;;15.23;;
313;SDS011;143;51.634;7.112;2023-08-30T11:44:25;23.37;;;14.00;;
313;SDS011;143;51.634;7.112;2023-08-30T11:46:59;22.23;;;14.03;;
313;SDS011;143;51.634;7.112;2023-08-30T11:49:26;21.27;;;13.10;;
313;SDS011;143;51.634;7.112;2023-08-30T11:51:53;17.57;;;13.40;;
313;SDS011;143;51.634;7.112;2023-08-30T11:54:21;21.20;;;11.63;;
313;SDS011;143;51.634;7.112;2023-08-30T11:56:48;23.80;;;13.83;;
313;SDS011;143;51.634;7.112;2023-08-30T11:59:18;17.50;;;13.20;;
313;SDS011;143;51.634;7.112;2023-08-30T12:01:45;18.97;;;12.73;;
313;SDS011;143;51.634;7.112;2023-08-30T12:04:10;17.27;;;12.50;;
313;SDS011;143;51.634;7.112;2023-08-30T12:06:36;16.73;;;12.10;;
313;SDS011;143;51.634;7.112;2023-08-30T12:09:02;14.50;;;10.83;;
313;SDS011;143;51.634;7.112;2023-08-30T12:11:31;16.43;;;11.03;;
313;SDS011;143;51.634;7.112;2023-08-30T12:14:01;13.70;;;9.90;;
313;SDS011;143;51.634;7.112;2023-08-30T12:16:27;18.47;;;10.70;;
313;SDS011;143;51.634;7.112;2023-08-30T12:18:53;12.50;;;9.00;;
313;SDS011;143;51.634;7.112;2023-08-30T12:21:18;11.63;;;8.37;;
313;SDS011;143;51.634;7.112;2023-08-30T12:23:44;15.37;;;8.30;;
313;SDS011;143;51.634;7.112;2023-08-30T12:26:10;12.60;;;9.13;;
313;SDS011;143;51.634;7.112;2023-08-30T12:28:37;10.23;;;8.20;;
313;SDS011;143;51.634;7.112;2023-08-30T12:31:04;12.63;;;7.80;;
313;SDS011;143;51.634;7.112;2023-08-30T12:33:30;11.77;;;9.03;;
313;SDS011;143;51.634;7.112;2023-08-30T12:35:57;13.47;;;10.03;;
313;SDS011;143;51.634;7.112;2023-08-30T12:38:23;12.17;;;9.80;;
313;SDS011;143;51.634;7.112;2023-08-30T12:40:50;11.70;;;9.20;;
313;SDS011;143;51.634;7.112;2023-08-30T12:43:17;11.63;;;9.10;;
313;SDS011;143;51.634;7.112;2023-08-30T12:45:43;13.60;;;8.83;;
313;SDS011;143;51.634;7.112;2023-08-30T12:48:11;8.60;;;7.10;;
313;SDS011;143;51.634;7.112;2023-08-30T12:50:40;10.47;;;7.13;;
313;SDS011;143;51.634;7.112;2023-08-30T12:53:06;11.47;;;9.03;;
313;SDS011;143;51.634;7.112;2023-08-30T12:55:32;12.63;;;8.30;;
313;SDS011;143;51.634;7.112;2023-08-30T12:57:59;9.50;;;8.23;;
313;SDS011;143;51.634;7.112;2023-08-30T13:00:25;11.87;;;8.50;;
313;SDS011;143;51.634;7.112;2023-08-30T13:02:51;10.53;;;8.73;;
313;SDS011;143;51.634;7.112;2023-08-30T13:05:17;10.83;;;7.90;;
313;SDS011;143;51.634;7.112;2023-08-30T13:07:43;12.80;;;9.20;;
313;SDS011;143;51.634;7.112;2023-08-30T13:10:09;10.70;;;8.10;;
313;SDS011;143;51.634;7.112;2023-08-30T13:12:35;9.47;;;7.43;;
313;SDS011;143;51.634;7.112;2023-08-30T13:15:01;11.77;;;8.07;;
313;SDS011;143;51.634;7.112;2023-08-30T13:17:28;12.40;;;9.10;;
313;SDS011;143;51.634;7.112;2023-08-30T13:19:53;14.10;;;9.17;;
313;SDS011;143;51.634;7.112;2023-08-30T13:22:20;13.40;;;9.10;;
313;SDS011;143;51.634;7.112;2023-08-30T13:24:46;12.23;;;8.60;;
313;SDS011;143;51.634;7.112;2023-08-30T13:27:12;12.47;;;8.93;;
313;SDS011;143;51.634;7.112;2023-08-30T13:29:38;19.73;;;10.10;;
313;SDS011;143;51.634;7.112;2023-08-30T13:32:04;15.00;;;10.40;;
313;SDS011;143;51.634;7.112;2023-08-30T13:34:30;16.30;;;11.53;;
313;SDS011;143;51.634;7.112;2023-08-30T13:36:55;18.87;;;11.93;;
313;SDS011;143;51.634;7.112;2023-08-30T13:39:21;17.90;;;12.67;;
313;SDS011;143;51.634;7.112;2023-08-30T13:41:47;19.97;;;12.63;;
313;SDS011;143;51.634;7.112;2023-08-30T13:44:13;17.87;;;13.57;;
313;SDS011;143;51.634;7.112;2023-08-30T13:46:39;15.70;;;11.87;;
313;SDS011;143;51.634;7.112;2023-08-30T13:49:05;17.57;;;11.93;;
313;SDS011;143;51.634;7.112;2023-08-30T13:51:30;17.90;;;10.33;;
313;SDS011;143;51.634;7.112;2023-08-30T13:53:56;14.10;;;9.37;;
313;SDS011;143;51.634;7.112;2023-08-30T13:56:22;14.80;;;10.27;;
313;SDS011;143;51.634;7.112;2023-08-30T13:58:48;12.07;;;9.03;;
313;SDS011;143;51.634;7.112;2023-08-30T14:01:14;14.67;;;9.70;;
313;SDS011;143;51.634;7.112;2023-08-30T14:03:41;19.63;;;9.67;;
313;SDS011;143;51.634;7.112;2023-08-30T14:06:07;18.53;;;10.03;;
313;SDS011;143;51.634;7.112;2023-08-30T14:08:34;16.20;;;11.13;;
313;SDS011;143;51.634;7.112;2023-08-30T14:11:00;14.03;;;9.40;;
313;SDS011;143;51.634;7.112;2023-08-30T14:13:25;12.70;;;9.90;;
313;SDS011;143;51.634;7.112;2023-08-30T14:15:53;11.70;;;8.80;;
313;SDS011;143;51.634;7.112;2023-08-30T14:18:19;13.50;;;8.63;;
313;SDS011;143;51.634;7.112;2023-08-30T14:20:44;14.23;;;9.93;;
313;SDS011;143;51.634;7.112;2023-08-30T14:23:10;14.30;;;8.90;;
313;SDS011;143;51.634;7.112;2023-08-30T14:25:36;12.23;;;8.97;;
313;SDS011;143;51.634;7.112;2023-08-30T14:28:02;12.10;;;9.10;;
313;SDS011;143;51.634;7.112;2023-08-30T14:30:29;15.40;;;7.97;;
313;SDS011;143;51.634;7.112;2023-08-30T14:32:55;9.77;;;6.90;;
313;SDS011;143;51.634;7.112;2023-08-30T14:35:20;16.60;;;8.90;;
313;SDS011;143;51.634;7.112;2023-08-30T14:37:48;10.97;;;7.40;;
313;SDS011;143;51.634;7.112;2023-08-30T14:40:15;14.30;;;10.00;;
313;SDS011;143;51.634;7.112;2023-08-30T14:42:41;26.87;;;8.27;;
313;SDS011;143;51.634;7.112;2023-08-30T14:45:07;10.57;;;8.67;;
313;SDS011;143;51.634;7.112;2023-08-30T14:47:33;12.23;;;8.40;;
313;SDS011;143;51.634;7.112;2023-08-30T14:49:59;16.60;;;8.30;;
313;SDS011;143;51.634;7.112;2023-08-30T14:52:28;13.60;;;9.30;;
313;SDS011;143;51.634;7.112;2023-08-30T14:54:54;13.33;;;8.00;;
313;SDS011;143;51.634;7.112;2023-08-30T14:57:20;14.43;;;8.57;;
313;SDS011;143;51.634;7.112;2023-08-30T14:59:47;10.60;;;7.93;;
313;SDS011;143;51.634;7.112;2023-08-30T15:02:12;17.40;;;9.70;;
313;SDS011;143;51.634;7.112;2023-08-30T15:04:39;17.97;;;10.63;;
313;SDS011;143;51.634;7.112;2023-08-30T15:07:05;13.77;;;9.53;;
313;SDS011;143;51.634;7.112;2023-08-30T15:09:30;16.53;;;9.13;;
313;SDS011;143;51.634;7.112;2023-08-30T15:11:56;16.83;;;9.50;;
313;SDS011;143;51.634;7.112;2023-08-30T15:14:23;14.50;;;11.27;;
313;SDS011;143;51.634;7.112;2023-08-30T15:16:49;15.27;;;9.87;;
313;SDS011;143;51.634;7.112;2023-08-30T15:19:15;11.77;;;9.40;;
313;SDS011;143;51.634;7.112;2023-08-30T15:21:40;11.10;;;8.47;;